createdAt,value
2022-12-31T00:00:21.232Z,96.45
2022-12-31T00:01:21.190Z,96.55
2022-12-31T00:02:21.322Z,96.34
2022-12-31T00:03:21.267Z,96.14
2022-12-31T00:04:21.166Z,96.25
2022-12-31T00:05:21.148Z,96.14
2022-12-31T00:06:21.172Z,96.04
2022-12-31T00:07:21.117Z,96.14
2022-12-31T00:08:21.119Z,96.39
2022-12-31T00:09:21.098Z,96.25
2022-12-31T00:10:21.103Z,96.34
2022-12-31T00:11:21.082Z,96.34
2022-12-31T00:12:21.092Z,96.25
2022-12-31T00:13:21.064Z,96.14
2022-12-31T00:14:21.060Z,96.34
2022-12-31T00:15:21.038Z,96.25
2022-12-31T00:16:21.080Z,96.25
2022-12-31T00:17:21.013Z,96.14
2022-12-31T00:18:21.019Z,96.04
2022-12-31T00:19:20.988Z,96.25
2022-12-31T00:20:21.001Z,96.14
2022-12-31T00:21:20.971Z,96.04
2022-12-31T00:22:20.990Z,95.94
2022-12-31T00:23:20.960Z,95.94
2022-12-31T00:24:20.960Z,95.94
2022-12-31T00:25:20.921Z,95.84
2022-12-31T00:26:20.940Z,95.73
2022-12-31T00:27:20.900Z,95.73
2022-12-31T00:28:20.942Z,95.43
2022-12-31T00:29:20.880Z,95.12
2022-12-31T00:30:20.891Z,95.12
2022-12-31T00:31:20.927Z,94.92
2022-12-31T00:32:20.875Z,95.02
2022-12-31T00:33:20.839Z,94.77
2022-12-31T00:34:20.871Z,94.56
2022-12-31T00:35:20.814Z,94.46
2022-12-31T00:36:20.823Z,94.67
2022-12-31T00:37:20.789Z,94.36
2022-12-31T00:38:20.797Z,94.15
2022-12-31T00:39:20.789Z,94.36
2022-12-31T00:40:20.803Z,94.06
2022-12-31T00:41:20.759Z,94.06
2022-12-31T00:42:20.753Z,93.85
2022-12-31T00:43:20.737Z,93.95
2022-12-31T00:44:20.769Z,94.26
2022-12-31T00:45:20.710Z,93.85
2022-12-31T00:46:20.844Z,93.95
2022-12-31T00:47:20.692Z,93.85
2022-12-31T00:48:20.733Z,93.74
2022-12-31T00:49:20.664Z,93.54
2022-12-31T00:50:20.690Z,93.50
2022-12-31T00:51:20.650Z,93.54
2022-12-31T00:52:20.645Z,93.85
2022-12-31T00:53:20.618Z,93.44
2022-12-31T00:54:20.651Z,93.19
2022-12-31T00:55:20.612Z,93.09
2022-12-31T00:56:20.616Z,92.99
2022-12-31T00:57:20.583Z,93.60
2022-12-31T00:58:20.589Z,93.09
2022-12-31T00:59:20.558Z,93.50
2022-12-31T01:00:20.554Z,93.60
2022-12-31T01:01:20.696Z,93.40
2022-12-31T01:02:20.724Z,93.40
2022-12-31T01:03:20.535Z,93.50
2022-12-31T01:04:20.530Z,93.19
2022-12-31T01:05:20.501Z,92.99
2022-12-31T01:06:20.505Z,92.64
2022-12-31T01:07:20.491Z,92.23
2022-12-31T01:08:20.486Z,92.02
2022-12-31T01:09:20.453Z,92.02
2022-12-31T01:10:20.468Z,92.13
2022-12-31T01:11:20.424Z,92.02
2022-12-31T01:12:20.440Z,92.23
2022-12-31T01:13:20.415Z,92.23
2022-12-31T01:14:20.419Z,92.33
2022-12-31T01:15:20.376Z,92.23
2022-12-31T01:16:20.400Z,91.92
2022-12-31T01:17:20.368Z,92.23
2022-12-31T01:18:20.364Z,92.02
2022-12-31T01:19:20.360Z,91.92
2022-12-31T01:20:20.351Z,91.78
2022-12-31T01:21:20.330Z,91.47
2022-12-31T01:22:20.337Z,91.57
2022-12-31T01:23:20.300Z,91.47
2022-12-31T01:24:20.346Z,91.47
2022-12-31T01:25:20.277Z,91.47
2022-12-31T01:26:20.291Z,91.47
2022-12-31T01:27:20.260Z,91.47
2022-12-31T01:28:20.271Z,91.37
2022-12-31T01:29:20.230Z,91.57
2022-12-31T01:30:20.247Z,91.67
2022-12-31T01:31:20.345Z,91.88
2022-12-31T01:32:20.243Z,91.88
2022-12-31T01:33:20.191Z,91.67
2022-12-31T01:34:20.214Z,91.88
2022-12-31T01:35:20.166Z,91.47
2022-12-31T01:36:25.257Z,91.57
2022-12-31T01:37:20.155Z,91.47
2022-12-31T01:38:20.154Z,91.78
2022-12-31T01:39:20.124Z,91.67
2022-12-31T01:40:20.134Z,91.78
2022-12-31T01:41:20.104Z,91.78
2022-12-31T01:42:20.121Z,91.78
2022-12-31T01:43:20.077Z,91.88
2022-12-31T01:44:20.091Z,91.88
2022-12-31T01:45:20.066Z,91.88
2022-12-31T01:46:20.109Z,91.78
2022-12-31T01:47:20.048Z,91.78
2022-12-31T01:48:20.066Z,91.88
2022-12-31T01:49:20.029Z,91.67
2022-12-31T01:50:20.021Z,91.74
2022-12-31T01:51:19.991Z,91.43
2022-12-31T01:52:20.011Z,91.63
2022-12-31T01:53:19.970Z,91.63
2022-12-31T01:54:19.997Z,91.74
2022-12-31T01:55:19.952Z,91.74
2022-12-31T01:56:19.966Z,92.04
2022-12-31T01:57:19.934Z,92.14
2022-12-31T01:58:19.945Z,92.30
2022-12-31T01:59:19.910Z,92.10
2022-12-31T02:00:19.935Z,92.30
2022-12-31T02:01:19.984Z,92.50
2022-12-31T02:02:19.988Z,92.61
2022-12-31T02:03:19.884Z,92.81
2022-12-31T02:04:19.868Z,92.81
2022-12-31T02:05:19.855Z,92.81
2022-12-31T02:06:19.859Z,92.91
2022-12-31T02:07:19.818Z,92.91
2022-12-31T02:08:19.837Z,93.12
2022-12-31T02:09:19.803Z,93.22
2022-12-31T02:10:19.828Z,93.52
2022-12-31T02:11:19.793Z,93.52
2022-12-31T02:12:19.778Z,93.63
2022-12-31T02:13:19.757Z,93.73
2022-12-31T02:14:19.772Z,93.93
2022-12-31T02:15:19.736Z,94.04
2022-12-31T02:16:19.774Z,93.93
2022-12-31T02:17:19.725Z,93.98
2022-12-31T02:18:19.728Z,94.08
2022-12-31T02:19:19.686Z,94.18
2022-12-31T02:20:19.693Z,94.29
2022-12-31T02:21:19.663Z,94.49
2022-12-31T02:22:19.678Z,94.29
2022-12-31T02:23:19.652Z,94.49
2022-12-31T02:24:19.649Z,94.59
2022-12-31T02:25:19.624Z,94.59
2022-12-31T02:26:19.642Z,94.59
2022-12-31T02:27:19.608Z,94.70
2022-12-31T02:28:19.629Z,94.79
2022-12-31T02:29:19.578Z,94.59
2022-12-31T02:30:19.591Z,94.70
2022-12-31T02:31:19.605Z,94.59
2022-12-31T02:32:19.553Z,94.70
2022-12-31T02:33:19.562Z,94.90
2022-12-31T02:34:19.525Z,94.90
2022-12-31T02:35:19.549Z,94.79
2022-12-31T02:36:19.508Z,94.79
2022-12-31T02:37:19.516Z,94.90
2022-12-31T02:38:19.482Z,95.10
2022-12-31T02:39:19.497Z,95.10
2022-12-31T02:40:19.469Z,95.10
2022-12-31T02:41:19.465Z,95.10
2022-12-31T02:42:19.457Z,95.20
2022-12-31T02:43:19.458Z,95.31
2022-12-31T02:44:19.430Z,95.31
2022-12-31T02:45:19.427Z,95.31
2022-12-31T02:46:19.449Z,95.31
2022-12-31T02:47:19.413Z,95.31
2022-12-31T02:48:19.376Z,95.41
2022-12-31T02:49:19.387Z,95.51
2022-12-31T02:50:19.354Z,95.51
2022-12-31T02:51:19.373Z,95.51
2022-12-31T02:52:19.331Z,95.61
2022-12-31T02:53:19.334Z,95.72
2022-12-31T02:54:19.334Z,95.81
2022-12-31T02:55:19.315Z,96.02
2022-12-31T02:56:19.291Z,96.12
2022-12-31T02:57:19.293Z,96.53
2022-12-31T02:58:19.266Z,96.73
2022-12-31T02:59:19.288Z,96.84
2022-12-31T03:00:19.258Z,97.04
2022-12-31T03:01:19.340Z,97.34
2022-12-31T03:02:19.430Z,97.75
2022-12-31T03:03:19.261Z,98.00
2022-12-31T03:04:19.196Z,98.41
2022-12-31T03:05:19.230Z,98.61
2022-12-31T03:06:19.191Z,98.72
2022-12-31T03:07:19.200Z,98.77
2022-12-31T03:08:19.158Z,98.82
2022-12-31T03:09:19.166Z,98.93
2022-12-31T03:10:19.167Z,99.02
2022-12-31T03:11:19.142Z,99.13
2022-12-31T03:12:19.119Z,99.33
2022-12-31T03:13:19.129Z,99.33
2022-12-31T03:14:19.095Z,99.64
2022-12-31T03:15:19.114Z,99.43
2022-12-31T03:16:19.116Z,99.54
2022-12-31T03:17:19.086Z,99.54
2022-12-31T03:18:19.060Z,99.54
2022-12-31T03:19:19.066Z,99.33
2022-12-31T03:20:19.036Z,99.33
2022-12-31T03:21:19.040Z,99.33
2022-12-31T03:22:19.005Z,99.23
2022-12-31T03:23:19.040Z,99.33
2022-12-31T03:24:18.984Z,99.33
2022-12-31T03:25:19.034Z,99.43
2022-12-31T03:26:18.991Z,99.33
2022-12-31T03:27:19.026Z,99.23
2022-12-31T03:28:18.944Z,99.33
2022-12-31T03:29:18.995Z,99.23
2022-12-31T03:30:18.935Z,99.23
2022-12-31T03:31:19.037Z,99.23
2022-12-31T03:32:18.897Z,99.13
2022-12-31T03:33:18.917Z,99.02
2022-12-31T03:34:18.883Z,99.02
2022-12-31T03:35:18.881Z,98.93
2022-12-31T03:36:18.861Z,98.72
2022-12-31T03:37:18.871Z,98.61
2022-12-31T03:38:18.845Z,98.52
2022-12-31T03:39:18.849Z,98.41
2022-12-31T03:40:18.811Z,98.31
2022-12-31T03:41:18.818Z,98.11
2022-12-31T03:42:18.800Z,98.00
2022-12-31T03:43:18.808Z,97.90
2022-12-31T03:44:18.779Z,97.90
2022-12-31T03:45:18.779Z,97.90
2022-12-31T03:46:18.751Z,97.80
2022-12-31T03:47:18.771Z,97.70
2022-12-31T03:48:18.741Z,97.70
2022-12-31T03:49:18.749Z,97.70
2022-12-31T03:50:18.711Z,97.60
2022-12-31T03:51:18.725Z,97.49
2022-12-31T03:52:18.690Z,97.49
2022-12-31T03:53:18.701Z,97.49
2022-12-31T03:54:18.660Z,97.39
2022-12-31T03:55:18.678Z,97.29
2022-12-31T03:56:18.655Z,97.19
2022-12-31T03:57:18.642Z,97.19
2022-12-31T03:58:18.635Z,97.08
2022-12-31T03:59:18.639Z,96.98
2022-12-31T04:00:18.609Z,96.88
2022-12-31T04:01:18.723Z,96.98
2022-12-31T04:02:20.903Z,96.78
2022-12-31T04:03:18.696Z,96.68
2022-12-31T04:04:18.597Z,96.68
2022-12-31T04:05:18.564Z,96.37
2022-12-31T04:06:18.541Z,96.17
2022-12-31T04:07:18.562Z,96.06
2022-12-31T04:08:18.521Z,95.45
2022-12-31T04:09:18.534Z,95.31
2022-12-31T04:10:18.489Z,94.90
2022-12-31T04:11:20.951Z,94.59
2022-12-31T04:12:18.465Z,94.18
2022-12-31T04:13:18.502Z,93.98
2022-12-31T04:14:18.445Z,93.98
2022-12-31T04:15:18.489Z,93.77
2022-12-31T04:16:18.433Z,93.37
2022-12-31T04:17:18.458Z,93.02
2022-12-31T04:18:18.421Z,92.81
2022-12-31T04:19:18.409Z,92.71
2022-12-31T04:20:18.385Z,92.41
2022-12-31T04:21:18.399Z,92.50
2022-12-31T04:22:18.368Z,92.50
2022-12-31T04:23:18.428Z,92.50
2022-12-31T04:24:18.334Z,92.50
2022-12-31T04:25:18.353Z,92.41
2022-12-31T04:26:18.322Z,92.30
2022-12-31T04:27:18.334Z,92.10
2022-12-31T04:28:18.331Z,92.10
2022-12-31T04:29:18.316Z,92.20
2022-12-31T04:30:18.271Z,92.10
2022-12-31T04:31:18.329Z,91.89
2022-12-31T04:32:18.265Z,91.59
2022-12-31T04:33:18.271Z,91.39
2022-12-31T04:34:18.234Z,91.24
2022-12-31T04:35:18.250Z,91.03
2022-12-31T04:36:18.209Z,90.83
2022-12-31T04:37:18.227Z,91.03
2022-12-31T04:38:18.197Z,90.94
2022-12-31T04:39:18.211Z,90.94
2022-12-31T04:40:18.176Z,90.94
2022-12-31T04:41:18.183Z,90.42
2022-12-31T04:42:18.144Z,90.12
2022-12-31T04:43:18.175Z,90.01
2022-12-31T04:44:18.131Z,89.81
2022-12-31T04:45:18.143Z,89.92
2022-12-31T04:46:18.159Z,89.61
2022-12-31T04:47:23.369Z,89.61
2022-12-31T04:48:18.090Z,89.51
2022-12-31T04:49:18.087Z,89.51
2022-12-31T04:50:18.068Z,89.40
2022-12-31T04:51:18.074Z,89.51
2022-12-31T04:52:18.046Z,89.40
2022-12-31T04:53:18.052Z,89.40
2022-12-31T04:54:18.018Z,89.51
2022-12-31T04:55:18.051Z,89.30
2022-12-31T04:56:18.001Z,89.10
2022-12-31T04:57:18.015Z,88.85
2022-12-31T04:58:17.976Z,88.85
2022-12-31T04:59:17.978Z,88.55
2022-12-31T05:00:17.955Z,88.75
2022-12-31T05:01:18.094Z,88.75
2022-12-31T05:02:18.176Z,88.65
2022-12-31T05:03:17.975Z,88.65
2022-12-31T05:04:17.908Z,88.55
2022-12-31T05:05:17.921Z,88.65
2022-12-31T05:06:17.912Z,88.59
2022-12-31T05:07:17.912Z,88.55
2022-12-31T05:08:17.896Z,88.59
2022-12-31T05:09:17.880Z,88.49
2022-12-31T05:10:17.844Z,88.59
2022-12-31T05:11:17.842Z,88.39
2022-12-31T05:12:17.830Z,88.28
2022-12-31T05:13:17.827Z,88.28
2022-12-31T05:14:17.794Z,88.28
2022-12-31T05:15:17.803Z,88.69
2022-12-31T05:16:17.833Z,88.49
2022-12-31T05:17:17.804Z,88.49
2022-12-31T05:18:17.758Z,88.49
2022-12-31T05:19:17.759Z,88.59
2022-12-31T05:20:17.731Z,88.39
2022-12-31T05:21:17.741Z,88.28
2022-12-31T05:22:17.729Z,88.18
2022-12-31T05:23:17.740Z,88.08
2022-12-31T05:24:17.686Z,88.18
2022-12-31T05:25:17.708Z,88.28
2022-12-31T05:26:17.664Z,88.18
2022-12-31T05:27:17.681Z,88.28
2022-12-31T05:28:17.658Z,88.28
2022-12-31T05:29:17.644Z,88.49
2022-12-31T05:30:17.648Z,88.18
2022-12-31T05:31:17.717Z,88.28
2022-12-31T05:32:17.606Z,88.39
2022-12-31T05:33:17.631Z,88.69
2022-12-31T05:34:17.601Z,88.28
2022-12-31T05:35:17.598Z,88.39
2022-12-31T05:36:17.564Z,88.59
2022-12-31T05:37:17.575Z,88.39
2022-12-31T05:38:17.552Z,88.49
2022-12-31T05:39:17.541Z,88.49
2022-12-31T05:40:17.523Z,88.39
2022-12-31T05:41:17.531Z,88.49
2022-12-31T05:42:17.497Z,88.28
2022-12-31T05:43:17.503Z,88.18
2022-12-31T05:44:17.473Z,88.08
2022-12-31T05:45:17.498Z,88.39
2022-12-31T05:46:17.498Z,88.39
2022-12-31T05:47:17.453Z,88.39
2022-12-31T05:48:17.434Z,88.69
2022-12-31T05:49:17.441Z,88.59
2022-12-31T05:50:17.408Z,88.79
2022-12-31T05:51:17.424Z,88.59
2022-12-31T05:52:17.383Z,88.59
2022-12-31T05:53:17.386Z,88.69
2022-12-31T05:54:17.367Z,89.00
2022-12-31T05:55:17.379Z,88.93
2022-12-31T05:56:17.362Z,88.84
2022-12-31T05:57:17.360Z,88.93
2022-12-31T05:58:17.319Z,89.04
2022-12-31T05:59:17.323Z,88.84
2022-12-31T06:00:17.307Z,88.84
2022-12-31T06:01:17.354Z,89.00
2022-12-31T06:02:17.335Z,88.84
2022-12-31T06:03:17.379Z,89.14
2022-12-31T06:04:17.254Z,89.10
2022-12-31T06:05:21.058Z,89.14
2022-12-31T06:06:17.248Z,88.84
2022-12-31T06:07:17.266Z,89.04
2022-12-31T06:08:17.215Z,89.00
2022-12-31T06:09:17.233Z,88.59
2022-12-31T06:10:17.223Z,88.59
2022-12-31T06:11:17.277Z,88.39
2022-12-31T06:12:17.195Z,88.49
2022-12-31T06:13:17.190Z,88.59
2022-12-31T06:14:17.157Z,88.49
2022-12-31T06:15:17.150Z,88.49
2022-12-31T06:16:17.174Z,88.39
2022-12-31T06:17:17.132Z,88.69
2022-12-31T06:18:17.112Z,88.49
2022-12-31T06:19:17.209Z,88.69
2022-12-31T06:20:17.081Z,88.59
2022-12-31T06:21:17.097Z,88.59
2022-12-31T06:22:17.092Z,88.73
2022-12-31T06:23:17.065Z,88.53
2022-12-31T06:24:17.040Z,88.63
2022-12-31T06:25:17.056Z,88.43
2022-12-31T06:26:17.016Z,88.84
2022-12-31T06:27:17.016Z,88.63
2022-12-31T06:28:20.354Z,88.73
2022-12-31T06:29:17.000Z,88.84
2022-12-31T06:30:16.986Z,88.53
2022-12-31T06:31:17.089Z,88.63
2022-12-31T06:32:16.951Z,88.53
2022-12-31T06:33:16.968Z,88.63
2022-12-31T06:34:16.941Z,88.63
2022-12-31T06:35:16.933Z,88.73
2022-12-31T06:36:16.930Z,88.43
2022-12-31T06:37:16.926Z,88.32
2022-12-31T06:38:16.885Z,88.63
2022-12-31T06:39:16.920Z,88.63
2022-12-31T06:40:16.863Z,88.63
2022-12-31T06:41:16.870Z,88.73
2022-12-31T06:42:16.865Z,88.63
2022-12-31T06:43:16.846Z,88.63
2022-12-31T06:44:16.822Z,88.84
2022-12-31T06:45:16.779Z,88.63
2022-12-31T06:46:16.892Z,88.63
2022-12-31T06:47:16.744Z,88.73
2022-12-31T06:48:16.751Z,88.73
2022-12-31T06:49:16.717Z,88.84
2022-12-31T06:50:16.744Z,88.73
2022-12-31T06:51:17.548Z,88.73
2022-12-31T06:52:16.763Z,88.93
2022-12-31T06:53:16.694Z,88.63
2022-12-31T06:54:16.692Z,88.53
2022-12-31T06:55:16.676Z,88.73
2022-12-31T06:56:16.658Z,88.63
2022-12-31T06:57:16.698Z,88.63
2022-12-31T06:58:16.688Z,88.63
2022-12-31T06:59:16.618Z,88.63
2022-12-31T07:00:16.629Z,88.63
2022-12-31T07:01:16.698Z,88.73
2022-12-31T07:02:16.677Z,88.84
2022-12-31T07:03:16.573Z,88.73
2022-12-31T07:04:16.578Z,88.93
2022-12-31T07:05:16.540Z,88.84
2022-12-31T07:06:16.556Z,88.73
2022-12-31T07:07:16.529Z,88.63
2022-12-31T07:08:16.530Z,88.73
2022-12-31T07:09:16.494Z,88.73
2022-12-31T07:10:16.532Z,88.73
2022-12-31T07:11:16.497Z,88.73
2022-12-31T07:12:16.478Z,88.84
2022-12-31T07:13:16.634Z,88.93
2022-12-31T07:14:16.466Z,88.84
2022-12-31T07:15:16.432Z,88.93
2022-12-31T07:16:16.520Z,88.93
2022-12-31T07:17:16.416Z,88.93
2022-12-31T07:18:16.410Z,88.84
2022-12-31T07:19:16.388Z,88.69
2022-12-31T07:20:16.403Z,88.79
2022-12-31T07:21:16.364Z,88.69
2022-12-31T07:22:16.382Z,88.69
2022-12-31T07:23:16.376Z,88.59
2022-12-31T07:24:16.363Z,88.59
2022-12-31T07:25:16.321Z,88.59
2022-12-31T07:26:16.324Z,88.49
2022-12-31T07:27:16.312Z,88.59
2022-12-31T07:28:16.311Z,88.59
2022-12-31T07:29:16.284Z,88.49
2022-12-31T07:30:16.281Z,88.49
2022-12-31T07:31:16.299Z,88.39
2022-12-31T07:32:16.279Z,88.18
2022-12-31T07:33:16.231Z,88.14
2022-12-31T07:34:16.262Z,87.94
2022-12-31T07:35:16.219Z,87.73
2022-12-31T07:36:16.231Z,87.53
2022-12-31T07:37:16.190Z,87.53
2022-12-31T07:38:16.201Z,87.63
2022-12-31T07:39:16.177Z,87.32
2022-12-31T07:40:16.197Z,87.18
2022-12-31T07:41:16.147Z,87.29
2022-12-31T07:42:16.168Z,86.88
2022-12-31T07:43:16.126Z,86.77
2022-12-31T07:44:16.141Z,86.57
2022-12-31T07:45:16.121Z,86.57
2022-12-31T07:46:16.131Z,86.57
2022-12-31T07:47:16.093Z,86.57
2022-12-31T07:48:16.101Z,86.47
2022-12-31T07:49:16.064Z,86.47
2022-12-31T07:50:16.121Z,86.68
2022-12-31T07:51:16.047Z,86.47
2022-12-31T07:52:16.073Z,86.37
2022-12-31T07:53:16.017Z,86.27
2022-12-31T07:54:16.030Z,86.37
2022-12-31T07:55:16.000Z,86.22
2022-12-31T07:56:16.012Z,86.43
2022-12-31T07:57:15.981Z,86.33
2022-12-31T07:58:15.991Z,86.33
2022-12-31T07:59:19.691Z,86.68
2022-12-31T08:00:15.986Z,86.53
2022-12-31T08:01:16.020Z,86.43
2022-12-31T08:02:16.126Z,86.33
2022-12-31T08:03:15.911Z,86.22
2022-12-31T08:04:15.933Z,86.13
2022-12-31T08:05:15.888Z,86.13
2022-12-31T08:06:15.893Z,86.02
2022-12-31T08:07:15.871Z,85.82
2022-12-31T08:08:15.901Z,85.68
2022-12-31T08:09:15.858Z,85.58
2022-12-31T08:10:18.286Z,85.47
2022-12-31T08:11:15.820Z,85.17
2022-12-31T08:12:15.824Z,85.06
2022-12-31T08:13:15.808Z,84.86
2022-12-31T08:14:15.826Z,84.72
2022-12-31T08:15:15.777Z,84.62
2022-12-31T08:16:15.834Z,84.52
2022-12-31T08:17:15.770Z,84.52
2022-12-31T08:18:15.772Z,84.62
2022-12-31T08:19:15.751Z,84.52
2022-12-31T08:20:15.772Z,84.52
2022-12-31T08:21:15.711Z,84.28
2022-12-31T08:22:15.727Z,84.28
2022-12-31T08:23:15.703Z,84.07
2022-12-31T08:24:15.706Z,83.97
2022-12-31T08:25:15.699Z,83.97
2022-12-31T08:26:15.716Z,83.76
2022-12-31T08:27:15.647Z,83.67
2022-12-31T08:28:15.654Z,83.56
2022-12-31T08:29:15.629Z,83.32
2022-12-31T08:30:15.638Z,83.22
2022-12-31T08:31:15.726Z,83.32
2022-12-31T08:32:15.623Z,83.12
2022-12-31T08:33:15.586Z,83.12
2022-12-31T08:34:15.604Z,83.12
2022-12-31T08:35:15.559Z,83.12
2022-12-31T08:36:15.586Z,83.22
2022-12-31T08:37:15.531Z,82.92
2022-12-31T08:38:15.542Z,83.12
2022-12-31T08:39:15.511Z,82.92
2022-12-31T08:40:15.537Z,82.71
2022-12-31T08:41:15.490Z,82.81
2022-12-31T08:42:15.504Z,82.78
2022-12-31T08:43:15.495Z,82.87
2022-12-31T08:44:15.473Z,82.87
2022-12-31T08:45:15.446Z,82.87
2022-12-31T08:46:15.503Z,82.78
2022-12-31T08:47:15.424Z,82.57
2022-12-31T08:48:15.446Z,82.47
2022-12-31T08:49:15.400Z,82.47
2022-12-31T08:50:15.411Z,82.57
2022-12-31T08:51:15.378Z,82.87
2022-12-31T08:52:15.410Z,82.37
2022-12-31T08:53:15.360Z,82.67
2022-12-31T08:54:15.385Z,82.37
2022-12-31T08:55:15.348Z,82.37
2022-12-31T08:56:15.353Z,82.17
2022-12-31T08:57:15.321Z,82.26
2022-12-31T08:58:15.334Z,81.96
2022-12-31T08:59:15.295Z,82.17
2022-12-31T09:00:15.299Z,81.96
2022-12-31T09:01:15.386Z,81.76
2022-12-31T09:02:15.383Z,81.86
2022-12-31T09:03:15.264Z,81.76
2022-12-31T09:04:15.290Z,81.76
2022-12-31T09:05:15.232Z,81.86
2022-12-31T09:06:15.261Z,81.66
2022-12-31T09:07:15.214Z,81.66
2022-12-31T09:08:15.225Z,81.66
2022-12-31T09:09:15.182Z,81.45
2022-12-31T09:10:15.201Z,81.41
2022-12-31T09:11:20.862Z,81.21
2022-12-31T09:12:15.172Z,81.21
2022-12-31T09:13:15.155Z,81.11
2022-12-31T09:14:15.144Z,81.11
2022-12-31T09:15:15.129Z,80.91
2022-12-31T09:16:15.211Z,80.91
2022-12-31T09:17:15.092Z,80.80
2022-12-31T09:18:15.132Z,80.50
2022-12-31T09:19:15.083Z,80.60
2022-12-31T09:20:15.107Z,80.60
2022-12-31T09:21:15.046Z,80.40
2022-12-31T09:22:15.063Z,80.26
2022-12-31T09:23:15.041Z,80.26
2022-12-31T09:24:15.056Z,80.36
2022-12-31T09:25:15.001Z,80.26
2022-12-31T09:26:15.031Z,80.26
2022-12-31T09:27:14.980Z,80.50
2022-12-31T09:28:14.996Z,80.60
2022-12-31T09:29:14.962Z,80.71
2022-12-31T09:30:14.975Z,80.71
2022-12-31T09:31:14.980Z,80.71
2022-12-31T09:32:14.962Z,80.91
2022-12-31T09:33:14.915Z,80.80
2022-12-31T09:34:14.927Z,80.80
2022-12-31T09:35:14.913Z,80.71
2022-12-31T09:36:14.901Z,80.60
2022-12-31T09:37:14.880Z,80.50
2022-12-31T09:38:14.891Z,80.57
2022-12-31T09:39:14.866Z,80.36
2022-12-31T09:40:14.886Z,80.36
2022-12-31T09:41:14.827Z,80.16
2022-12-31T09:42:14.842Z,80.16
2022-12-31T09:43:14.828Z,80.06
2022-12-31T09:44:14.809Z,79.65
2022-12-31T09:45:14.781Z,79.75
2022-12-31T09:46:14.909Z,79.21
2022-12-31T09:47:14.760Z,79.21
2022-12-31T09:48:14.776Z,79.11
2022-12-31T09:49:14.734Z,78.70
2022-12-31T09:50:14.742Z,78.46
2022-12-31T09:51:16.315Z,78.36
2022-12-31T09:52:14.744Z,78.46
2022-12-31T09:53:14.692Z,78.16
2022-12-31T09:54:14.707Z,78.06
2022-12-31T09:55:14.673Z,78.06
2022-12-31T09:56:14.716Z,77.75
2022-12-31T09:57:14.657Z,77.65
2022-12-31T09:58:14.651Z,77.55
2022-12-31T09:59:14.624Z,77.51
2022-12-31T10:00:14.630Z,77.31
2022-12-31T10:01:14.693Z,77.01
2022-12-31T10:02:14.908Z,76.70
2022-12-31T10:03:14.641Z,76.26
2022-12-31T10:04:14.587Z,76.16
2022-12-31T10:05:14.561Z,76.36
2022-12-31T10:06:14.565Z,76.16
2022-12-31T10:07:14.545Z,75.85
2022-12-31T10:08:14.553Z,76.06
2022-12-31T10:09:14.515Z,75.85
2022-12-31T10:10:14.534Z,76.06
2022-12-31T10:11:14.499Z,75.65
2022-12-31T10:12:14.518Z,75.85
2022-12-31T10:13:14.469Z,75.35
2022-12-31T10:14:14.482Z,75.01
2022-12-31T10:15:14.446Z,74.91
2022-12-31T10:16:14.475Z,74.60
2022-12-31T10:17:14.547Z,74.40
2022-12-31T10:18:14.474Z,74.40
2022-12-31T10:19:14.419Z,74.10
2022-12-31T10:20:14.411Z,74.07
2022-12-31T10:21:14.382Z,73.86
2022-12-31T10:22:14.386Z,73.66
2022-12-31T10:23:14.363Z,73.56
2022-12-31T10:24:14.407Z,73.66
2022-12-31T10:25:14.344Z,73.76
2022-12-31T10:26:14.355Z,73.56
2022-12-31T10:27:14.336Z,73.05
2022-12-31T10:28:14.317Z,73.36
2022-12-31T10:29:14.307Z,72.95
2022-12-31T10:30:14.309Z,73.15
2022-12-31T10:31:14.329Z,73.15
2022-12-31T10:32:14.277Z,73.15
2022-12-31T10:33:14.250Z,72.95
2022-12-31T10:34:14.257Z,72.75
2022-12-31T10:35:14.241Z,72.95
2022-12-31T10:36:14.244Z,72.85
2022-12-31T10:37:14.208Z,73.05
2022-12-31T10:38:14.223Z,72.95
2022-12-31T10:39:17.646Z,72.85
2022-12-31T10:40:14.213Z,72.95
2022-12-31T10:41:14.163Z,73.05
2022-12-31T10:42:14.178Z,72.85
2022-12-31T10:43:14.150Z,72.72
2022-12-31T10:44:14.152Z,72.81
2022-12-31T10:45:14.130Z,72.72
2022-12-31T10:46:19.039Z,72.41
2022-12-31T10:47:14.102Z,72.61
2022-12-31T10:48:14.110Z,72.41
2022-12-31T10:49:14.076Z,72.41
2022-12-31T10:50:14.097Z,72.51
2022-12-31T10:51:14.073Z,72.31
2022-12-31T10:52:14.076Z,71.97
2022-12-31T10:53:14.036Z,71.87
2022-12-31T10:54:14.047Z,71.67
2022-12-31T10:55:14.008Z,71.67
2022-12-31T10:56:14.040Z,71.57
2022-12-31T10:57:13.996Z,71.37
2022-12-31T10:58:13.993Z,71.37
2022-12-31T10:59:13.969Z,71.47
2022-12-31T11:00:13.982Z,71.67
2022-12-31T11:01:14.068Z,71.26
2022-12-31T11:02:14.124Z,71.23
2022-12-31T11:03:13.981Z,71.13
2022-12-31T11:04:13.909Z,71.06
2022-12-31T11:05:13.921Z,71.06
2022-12-31T11:06:13.885Z,71.06
2022-12-31T11:07:13.896Z,71.37
2022-12-31T11:08:13.874Z,71.77
2022-12-31T11:09:13.882Z,71.77
2022-12-31T11:10:13.846Z,71.77
2022-12-31T11:11:13.861Z,71.91
2022-12-31T11:12:13.840Z,71.80
2022-12-31T11:13:13.826Z,71.80
2022-12-31T11:14:13.804Z,72.01
2022-12-31T11:15:13.833Z,72.01
2022-12-31T11:16:13.797Z,72.01
2022-12-31T11:17:13.797Z,72.08
2022-12-31T11:18:13.768Z,71.67
2022-12-31T11:19:13.786Z,71.97
2022-12-31T11:20:13.735Z,71.80
2022-12-31T11:21:13.752Z,71.91
2022-12-31T11:22:13.722Z,72.11
2022-12-31T11:23:13.734Z,72.01
2022-12-31T11:24:14.076Z,72.11
2022-12-31T11:25:13.711Z,72.11
2022-12-31T11:26:13.668Z,72.01
2022-12-31T11:27:13.686Z,72.21
2022-12-31T11:28:13.656Z,72.11
2022-12-31T11:29:13.655Z,71.80
2022-12-31T11:30:13.629Z,72.11
2022-12-31T11:31:13.720Z,72.11
2022-12-31T11:32:13.607Z,72.01
2022-12-31T11:33:13.645Z,71.91
2022-12-31T11:34:13.599Z,72.01
2022-12-31T11:35:13.588Z,72.01
2022-12-31T11:36:13.562Z,72.21
2022-12-31T11:37:13.581Z,72.11
2022-12-31T11:38:13.552Z,72.11
2022-12-31T11:39:13.551Z,71.80
2022-12-31T11:40:13.521Z,71.97
2022-12-31T11:41:13.551Z,71.77
2022-12-31T11:42:13.499Z,71.77
2022-12-31T11:43:13.513Z,71.77
2022-12-31T11:44:13.471Z,71.67
2022-12-31T11:45:13.497Z,71.57
2022-12-31T11:46:13.496Z,71.67
2022-12-31T11:47:13.476Z,71.57
2022-12-31T11:48:30.290Z,71.37
2022-12-31T11:49:13.445Z,71.47
2022-12-31T11:50:13.549Z,71.57
2022-12-31T11:51:13.423Z,71.37
2022-12-31T11:52:17.046Z,71.37
2022-12-31T11:53:13.408Z,71.37
2022-12-31T11:54:13.374Z,71.26
2022-12-31T11:55:13.365Z,71.03
2022-12-31T11:56:13.346Z,70.42
2022-12-31T11:57:13.344Z,70.09
2022-12-31T11:58:13.355Z,69.15
2022-12-31T11:59:18.950Z,68.30
2022-12-31T12:00:13.348Z,67.27
2022-12-31T12:01:13.378Z,66.83
2022-12-31T12:02:13.275Z,65.76
2022-12-31T12:03:13.525Z,64.32
2022-12-31T12:04:13.410Z,64.22
2022-12-31T12:05:13.274Z,63.48
2022-12-31T12:06:13.233Z,62.95
2022-12-31T12:07:13.328Z,62.02
2022-12-31T12:08:13.207Z,61.21
2022-12-31T12:09:13.217Z,61.29
2022-12-31T12:10:13.240Z,60.58
2022-12-31T12:11:13.218Z,60.78
2022-12-31T12:12:13.169Z,60.65
2022-12-31T12:13:13.178Z,60.22
2022-12-31T12:14:13.143Z,60.12
2022-12-31T12:15:13.153Z,59.82
2022-12-31T12:16:13.203Z,59.75
2022-12-31T12:17:13.151Z,60.58
2022-12-31T12:18:13.121Z,60.68
2022-12-31T12:19:13.128Z,61.29
2022-12-31T12:20:13.083Z,60.91
2022-12-31T12:21:13.090Z,61.01
2022-12-31T12:22:13.078Z,60.78
2022-12-31T12:23:13.071Z,60.58
2022-12-31T12:24:13.030Z,60.28
2022-12-31T12:25:13.040Z,60.78
2022-12-31T12:26:13.036Z,60.78
2022-12-31T12:27:13.030Z,60.15
2022-12-31T12:28:12.994Z,59.85
2022-12-31T12:29:13.000Z,59.65
2022-12-31T12:30:12.976Z,59.75
2022-12-31T12:31:13.009Z,60.48
2022-12-31T12:32:12.969Z,60.45
2022-12-31T12:33:12.951Z,59.55
2022-12-31T12:34:12.958Z,60.38
2022-12-31T12:35:12.944Z,60.48
2022-12-31T12:36:12.918Z,60.88
2022-12-31T12:37:12.922Z,60.68
2022-12-31T12:38:12.917Z,60.78
2022-12-31T12:39:12.887Z,60.58
2022-12-31T12:40:12.892Z,60.68
2022-12-31T12:41:12.885Z,60.45
2022-12-31T12:42:12.837Z,59.85
2022-12-31T12:43:12.862Z,60.18
2022-12-31T12:44:12.828Z,61.11
2022-12-31T12:45:12.854Z,61.21
2022-12-31T12:46:12.840Z,61.31
2022-12-31T12:47:12.827Z,61.71
2022-12-31T12:48:12.793Z,61.38
2022-12-31T12:49:12.794Z,61.29
2022-12-31T12:50:12.758Z,61.29
2022-12-31T12:51:12.799Z,61.15
2022-12-31T12:52:12.730Z,60.48